createdAt,value
2023-04-19T00:00:47.807Z,4.05
2023-04-19T00:03:16.060Z,3.90
2023-04-19T00:05:43.561Z,4.30
2023-04-19T00:08:10.648Z,4.05
2023-04-19T00:10:39.153Z,4.43
2023-04-19T00:13:06.533Z,4.50
2023-04-19T00:15:35.360Z,4.40
2023-04-19T00:18:02.605Z,5.18
2023-04-19T00:20:29.754Z,4.32
2023-04-19T00:22:58.858Z,4.45
2023-04-19T00:25:26.167Z,4.10
2023-04-19T00:27:53.288Z,3.72
2023-04-19T00:30:20.481Z,4.22
2023-04-19T00:32:47.542Z,3.80
2023-04-19T00:35:15.109Z,4.03
2023-04-19T00:37:45.635Z,4.25
2023-04-19T00:40:13.042Z,4.22
2023-04-19T00:42:40.224Z,3.67
2023-04-19T00:45:10.300Z,3.97
2023-04-19T00:47:37.900Z,3.58
2023-04-19T00:50:06.078Z,3.58
2023-04-19T00:52:34.745Z,4.03
2023-04-19T00:55:02.132Z,3.83
2023-04-19T00:57:30.061Z,3.65
2023-04-19T00:59:58.206Z,3.22
2023-04-19T01:02:25.349Z,4.00
2023-04-19T01:04:52.819Z,3.17
2023-04-19T01:07:20.172Z,3.35
2023-04-19T01:09:47.375Z,3.67
2023-04-19T01:12:14.447Z,3.78
2023-04-19T01:14:41.951Z,3.35
2023-04-19T01:17:09.680Z,3.47
2023-04-19T01:19:37.295Z,3.10
2023-04-19T01:22:04.902Z,3.53
2023-04-19T01:24:34.175Z,3.45
2023-04-19T01:27:02.451Z,3.20
2023-04-19T01:29:29.493Z,3.63
2023-04-19T01:31:59.001Z,2.85
2023-04-19T01:34:26.028Z,2.80
2023-04-19T01:36:53.110Z,3.47
2023-04-19T01:39:20.251Z,3.25
2023-04-19T01:41:47.311Z,3.45
2023-04-19T01:44:14.501Z,2.90
2023-04-19T01:46:42.907Z,2.88
2023-04-19T01:49:10.151Z,3.05
2023-04-19T01:51:41.207Z,2.88
2023-04-19T01:54:08.353Z,3.17
2023-04-19T01:56:35.427Z,3.30
2023-04-19T01:59:02.594Z,3.47
2023-04-19T02:01:29.852Z,3.72
2023-04-19T02:03:57.255Z,3.55
2023-04-19T02:06:24.577Z,3.25
2023-04-19T02:08:51.736Z,2.97
2023-04-19T02:11:18.878Z,3.30
2023-04-19T02:13:46.188Z,3.50
2023-04-19T02:16:13.522Z,3.70
2023-04-19T02:18:42.270Z,2.90
2023-04-19T02:21:11.491Z,3.33
2023-04-19T02:23:38.612Z,3.17
2023-04-19T02:26:05.883Z,3.25
2023-04-19T02:28:33.198Z,2.97
2023-04-19T02:31:04.858Z,2.70
2023-04-19T02:33:32.269Z,2.78
2023-04-19T02:35:59.321Z,3.25
2023-04-19T02:38:26.450Z,3.05
2023-04-19T02:40:53.518Z,3.50
2023-04-19T02:43:20.666Z,3.30
2023-04-19T02:45:47.844Z,2.92
2023-04-19T02:48:14.850Z,3.33
2023-04-19T02:50:45.327Z,3.31
2023-04-19T02:53:12.350Z,2.97
2023-04-19T02:55:39.374Z,3.00
2023-04-19T02:58:06.482Z,3.00
2023-04-19T03:00:36.138Z,3.67
2023-04-19T03:03:04.934Z,4.00
2023-04-19T03:05:32.336Z,3.00
2023-04-19T03:07:59.405Z,3.55
2023-04-19T03:10:26.505Z,3.63
2023-04-19T03:12:53.662Z,3.20
2023-04-19T03:15:20.956Z,3.90
2023-04-19T03:17:48.311Z,3.17
2023-04-19T03:20:17.478Z,3.75
2023-04-19T03:22:44.542Z,3.22
2023-04-19T03:25:13.572Z,3.50
2023-04-19T03:27:40.672Z,2.88
2023-04-19T03:30:08.233Z,3.83
2023-04-19T03:32:35.411Z,3.50
2023-04-19T03:35:02.551Z,3.40
2023-04-19T03:37:29.600Z,3.20
2023-04-19T03:39:59.228Z,3.50
2023-04-19T03:42:28.732Z,3.50
2023-04-19T03:44:58.362Z,3.75
2023-04-19T03:47:25.482Z,3.67
2023-04-19T03:49:52.607Z,3.20
2023-04-19T03:52:19.805Z,3.38
2023-04-19T03:54:46.816Z,3.88
2023-04-19T03:57:15.410Z,3.45
2023-04-19T03:59:42.454Z,3.53
2023-04-19T04:02:09.699Z,3.30
2023-04-19T04:04:36.994Z,4.15
2023-04-19T04:07:10.739Z,14.30
2023-04-19T04:09:37.736Z,48.17
2023-04-19T04:12:05.256Z,47.33
2023-04-19T04:14:32.247Z,38.58
2023-04-19T04:16:59.292Z,17.25
2023-04-19T04:19:26.461Z,10.57
2023-04-19T04:21:53.406Z,7.22
2023-04-19T04:24:22.272Z,11.80
2023-04-19T04:26:50.254Z,10.40
2023-04-19T04:29:21.036Z,10.45
2023-04-19T04:31:48.052Z,9.40
2023-04-19T04:34:15.293Z,6.55
2023-04-19T04:36:42.535Z,5.55
2023-04-19T04:39:12.138Z,9.80
2023-04-19T04:41:42.332Z,18.05
2023-04-19T04:44:12.994Z,18.42
2023-04-19T04:46:40.269Z,12.27
2023-04-19T04:49:07.536Z,5.07
2023-04-19T04:51:35.015Z,4.75
2023-04-19T04:54:02.072Z,3.90
2023-04-19T04:56:29.124Z,3.85
2023-04-19T04:58:57.248Z,4.00
2023-04-19T05:01:27.331Z,4.13
2023-04-19T05:03:54.567Z,3.55
2023-04-19T05:06:21.603Z,4.60
2023-04-19T05:08:48.577Z,4.57
2023-04-19T05:11:15.776Z,4.55
2023-04-19T05:13:43.112Z,6.53
2023-04-19T05:16:10.259Z,8.10
2023-04-19T05:18:39.784Z,6.50
2023-04-19T05:21:10.479Z,6.53
2023-04-19T05:23:38.446Z,5.93
2023-04-19T05:26:06.026Z,8.20
2023-04-19T05:28:36.073Z,5.47
2023-04-19T05:31:06.000Z,5.07
2023-04-19T05:33:33.162Z,4.63
2023-04-19T05:36:00.405Z,5.15
2023-04-19T05:38:27.414Z,5.90
2023-04-19T05:40:54.519Z,4.50
2023-04-19T05:43:22.113Z,4.75
2023-04-19T05:45:49.413Z,4.50
2023-04-19T05:48:16.554Z,4.30
2023-04-19T05:50:43.714Z,3.67
2023-04-19T05:53:10.869Z,3.60
2023-04-19T05:55:40.798Z,3.83
2023-04-19T05:58:08.416Z,4.72
2023-04-19T06:00:35.847Z,3.75
2023-04-19T06:03:03.244Z,5.40
2023-04-19T06:05:30.654Z,6.70
2023-04-19T06:08:02.819Z,6.78
2023-04-19T06:10:40.251Z,7.40
2023-04-19T06:13:08.175Z,4.85
2023-04-19T06:15:35.525Z,4.22
2023-04-19T06:18:02.697Z,4.25
2023-04-19T06:20:29.807Z,4.50
2023-04-19T06:22:59.330Z,4.38
2023-04-19T06:25:26.532Z,4.25
2023-04-19T06:27:53.777Z,4.30
2023-04-19T06:30:21.119Z,4.00
2023-04-19T06:32:48.387Z,4.20
2023-04-19T06:35:16.238Z,4.72
2023-04-19T06:37:43.351Z,3.95
2023-04-19T06:40:12.259Z,4.75
2023-04-19T06:42:39.380Z,4.00
2023-04-19T06:45:07.073Z,4.75
2023-04-19T06:47:35.571Z,4.20
2023-04-19T06:50:03.554Z,5.25
2023-04-19T06:52:30.665Z,4.47
2023-04-19T06:55:00.405Z,3.97
2023-04-19T06:57:27.530Z,4.47
2023-04-19T06:59:55.362Z,4.70
2023-04-19T07:02:22.613Z,4.75
2023-04-19T07:04:50.087Z,3.90
2023-04-19T07:07:18.108Z,4.50
2023-04-19T07:09:45.706Z,4.35
2023-04-19T07:12:12.798Z,3.80
2023-04-19T07:14:41.968Z,4.00
2023-04-19T07:17:09.268Z,4.82
2023-04-19T07:19:36.577Z,4.80
2023-04-19T07:22:03.661Z,3.90
2023-04-19T07:24:31.216Z,5.20
2023-04-19T07:26:58.376Z,4.60
2023-04-19T07:29:25.608Z,4.53
2023-04-19T07:31:55.624Z,4.53
2023-04-19T07:34:22.825Z,4.63
2023-04-19T07:36:49.884Z,4.57
2023-04-19T07:39:18.159Z,5.70
2023-04-19T07:41:46.490Z,5.38
2023-04-19T07:44:13.946Z,5.40
2023-04-19T07:46:44.341Z,5.78
2023-04-19T07:49:11.430Z,4.75
2023-04-19T07:51:38.747Z,5.20
2023-04-19T07:54:08.585Z,5.00
2023-04-19T07:56:38.629Z,4.95
2023-04-19T07:59:09.016Z,5.35
2023-04-19T08:01:37.442Z,5.13
2023-04-19T08:04:05.158Z,5.82
2023-04-19T08:06:35.597Z,5.40
2023-04-19T08:09:03.312Z,5.18
2023-04-19T08:11:30.296Z,4.78
2023-04-19T08:17:10.819Z,4.95
2023-04-19T08:19:15.648Z,5.03
2023-04-19T08:21:42.769Z,4.82
2023-04-19T08:24:12.516Z,5.20
2023-04-19T08:26:42.707Z,5.60
2023-04-19T08:29:09.864Z,5.72
2023-04-19T08:31:36.887Z,4.60
2023-04-19T08:34:04.131Z,5.22
2023-04-19T08:36:37.729Z,5.18
2023-04-19T08:39:20.820Z,5.13
2023-04-19T08:42:06.838Z,4.55
2023-04-19T08:44:51.032Z,5.25
2023-04-19T08:47:32.413Z,5.80
2023-04-19T08:52:37.284Z,4.95
2023-04-19T08:55:12.012Z,5.30
2023-04-19T08:57:39.237Z,5.00
2023-04-19T09:00:09.311Z,4.53
2023-04-19T09:02:50.120Z,5.00
2023-04-19T09:05:18.448Z,5.43
2023-04-19T09:07:46.827Z,5.53
2023-04-19T09:10:21.862Z,5.18
2023-04-19T09:13:05.754Z,4.70
2023-04-19T09:15:40.124Z,5.15
2023-04-19T09:18:10.274Z,5.75
2023-04-19T09:20:42.009Z,4.63
2023-04-19T09:23:12.901Z,5.13
2023-04-19T09:25:59.308Z,6.15
2023-04-19T09:28:33.873Z,5.47
2023-04-19T09:31:35.402Z,5.05
2023-04-19T09:34:18.178Z,5.18
2023-04-19T09:36:45.998Z,4.97
2023-04-19T09:39:14.897Z,5.43
2023-04-19T09:41:55.032Z,4.45
2023-04-19T09:46:53.828Z,4.99
2023-04-19T09:49:37.562Z,7.85
2023-04-19T09:52:15.308Z,8.63
2023-04-19T09:54:45.019Z,8.88
2023-04-19T09:57:12.434Z,8.10
2023-04-19T09:59:39.899Z,8.27
2023-04-19T10:02:09.902Z,8.38
2023-04-19T10:04:56.966Z,8.43
2023-04-19T10:07:30.577Z,7.95
2023-04-19T10:10:11.894Z,9.02
2023-04-19T10:15:22.529Z,7.72
2023-04-19T10:17:49.934Z,9.20
2023-04-19T10:20:46.434Z,7.57
2023-04-19T10:23:13.689Z,7.20
2023-04-19T10:25:41.103Z,8.15
2023-04-19T10:28:10.982Z,6.78
2023-04-19T10:31:16.486Z,8.00
2023-04-19T10:33:43.668Z,6.25
2023-04-19T10:36:14.807Z,6.57
2023-04-19T10:38:44.829Z,6.20
2023-04-19T10:41:15.375Z,5.63
2023-04-19T10:43:58.375Z,6.18
2023-04-19T10:46:26.578Z,6.38
2023-04-19T10:48:54.911Z,7.07
2023-04-19T10:51:36.649Z,9.93
2023-04-19T10:54:08.560Z,8.23
2023-04-19T10:56:39.460Z,6.75
2023-04-19T10:59:09.097Z,6.82
2023-04-19T11:01:38.280Z,5.75
2023-04-19T11:04:27.542Z,7.00
2023-04-19T11:07:01.816Z,6.30
2023-04-19T11:09:33.595Z,5.60
2023-04-19T11:12:08.901Z,5.53
2023-04-19T11:14:46.861Z,6.63
2023-04-19T11:17:28.603Z,4.80
2023-04-19T11:19:57.539Z,5.63
2023-04-19T11:22:41.259Z,4.97
2023-04-19T11:25:12.800Z,5.90
2023-04-19T11:27:41.801Z,5.90
2023-04-19T11:30:20.397Z,5.25
2023-04-19T11:32:52.030Z,5.68
2023-04-19T11:35:21.379Z,5.50
2023-04-19T11:37:48.718Z,4.95
2023-04-19T11:40:17.259Z,4.63
2023-04-19T11:42:45.158Z,4.57
2023-04-19T11:45:25.833Z,5.85
2023-04-19T11:47:56.253Z,5.47
2023-04-19T11:50:39.670Z,4.35
2023-04-19T11:53:22.527Z,4.03
2023-04-19T11:55:55.025Z,4.63
2023-04-19T11:58:36.271Z,4.85
2023-04-19T12:01:06.529Z,4.97
2023-04-19T12:03:35.104Z,5.07
2023-04-19T12:06:10.753Z,5.10
2023-04-19T12:08:40.124Z,6.40
2023-04-19T12:11:07.371Z,7.47
2023-04-19T12:13:35.210Z,7.60
2023-04-19T12:16:03.074Z,5.63
2023-04-19T12:18:47.109Z,5.18
2023-04-19T12:21:28.874Z,6.10
2023-04-19T12:24:00.762Z,6.43
2023-04-19T12:26:29.144Z,6.38
2023-04-19T12:28:57.382Z,7.22
2023-04-19T12:31:24.646Z,6.20
2023-04-19T12:33:51.758Z,6.72
2023-04-19T12:36:18.850Z,7.95
2023-04-19T12:38:45.911Z,9.50
2023-04-19T12:41:12.995Z,6.07
2023-04-19T12:43:40.248Z,5.00
2023-04-19T12:46:07.335Z,5.38
2023-04-19T12:48:34.479Z,5.72
2023-04-19T12:51:03.688Z,6.15
2023-04-19T12:53:30.789Z,5.57
2023-04-19T12:55:58.052Z,6.85
2023-04-19T12:58:25.302Z,7.20
2023-04-19T13:00:52.540Z,6.82
2023-04-19T13:03:19.846Z,7.57
2023-04-19T13:05:47.356Z,7.15
2023-04-19T13:08:14.347Z,7.30
2023-04-19T13:10:41.363Z,6.93
2023-04-19T13:13:08.354Z,5.50
2023-04-19T13:15:35.512Z,6.38
2023-04-19T13:18:02.733Z,6.43
2023-04-19T13:20:29.826Z,6.93
2023-04-19T13:22:58.892Z,6.00
2023-04-19T13:25:26.377Z,6.43
2023-04-19T13:27:53.427Z,6.28
2023-04-19T13:30:22.829Z,7.15
2023-04-19T13:32:53.494Z,8.18
2023-04-19T13:35:20.541Z,7.70
2023-04-19T13:37:47.811Z,7.80
2023-04-19T13:40:19.453Z,7.38
2023-04-19T13:42:46.932Z,8.00
2023-04-19T13:45:14.221Z,8.05
2023-04-19T13:47:41.470Z,6.85
2023-04-19T13:50:09.055Z,7.40
2023-04-19T13:52:36.587Z,7.93
2023-04-19T13:55:04.312Z,7.53
2023-04-19T13:57:31.346Z,7.97
2023-04-19T14:00:00.405Z,7.50
2023-04-19T14:02:30.036Z,8.13
2023-04-19T14:04:59.781Z,8.20
2023-04-19T14:07:27.069Z,7.53
2023-04-19T14:09:54.222Z,8.00
2023-04-19T14:12:21.489Z,7.88
2023-04-19T14:14:48.514Z,7.78
2023-04-19T14:17:15.532Z,8.52
2023-04-19T14:19:42.745Z,8.13
2023-04-19T14:22:12.114Z,6.97
2023-04-19T14:24:41.533Z,8.05
2023-04-19T14:27:10.939Z,10.82
2023-04-19T14:29:39.770Z,10.30
2023-04-19T14:32:23.556Z,9.00
2023-04-19T14:34:52.979Z,9.60
2023-04-19T14:37:21.329Z,9.82
2023-04-19T14:39:48.391Z,8.95
2023-04-19T14:42:15.576Z,10.60
2023-04-19T14:44:43.066Z,10.57
2023-04-19T14:47:10.158Z,10.30
2023-04-19T14:49:37.227Z,10.80
2023-04-19T14:52:05.692Z,11.63
2023-04-19T14:54:33.134Z,13.88
2023-04-19T14:57:01.168Z,11.13
2023-04-19T14:59:29.845Z,12.88
2023-04-19T15:01:57.323Z,11.07
2023-04-19T15:04:24.639Z,13.25
2023-04-19T15:06:51.945Z,14.73
2023-04-19T15:09:19.158Z,15.70
2023-04-19T15:11:47.302Z,9.35
2023-04-19T15:14:14.595Z,12.50
2023-04-19T15:16:41.836Z,13.45
2023-04-19T15:19:08.977Z,11.90
2023-04-19T15:21:36.032Z,8.38
2023-04-19T15:24:03.878Z,8.45
2023-04-19T15:26:31.002Z,8.80
2023-04-19T15:28:58.246Z,11.45
2023-04-19T15:31:25.570Z,8.30
2023-04-19T15:33:53.514Z,9.15
2023-04-19T15:36:20.908Z,9.93
2023-04-19T15:38:48.044Z,8.88
2023-04-19T15:41:15.093Z,9.02
2023-04-19T15:43:42.454Z,8.38
2023-04-19T15:46:15.459Z,10.18
2023-04-19T15:48:43.308Z,8.18
2023-04-19T15:51:12.157Z,8.02
2023-04-19T15:53:39.280Z,8.43
2023-04-19T15:56:06.688Z,9.02
2023-04-19T15:58:33.788Z,7.78
2023-04-19T16:01:00.902Z,9.20
2023-04-19T16:03:28.620Z,10.13
2023-04-19T16:05:55.836Z,10.82
2023-04-19T16:08:23.260Z,13.65
2023-04-19T16:10:50.440Z,10.45
2023-04-19T16:13:18.694Z,10.63
2023-04-19T16:15:45.851Z,12.13
2023-04-19T16:18:14.232Z,11.85
2023-04-19T16:20:41.514Z,11.43
2023-04-19T16:23:08.730Z,9.68
2023-04-19T16:25:35.998Z,9.73
2023-04-19T16:28:03.815Z,9.80
2023-04-19T16:30:31.128Z,10.68
2023-04-19T16:32:58.705Z,9.77
2023-04-19T16:35:26.861Z,10.60
2023-04-19T16:37:56.687Z,11.85
2023-04-19T16:40:24.440Z,12.00
2023-04-19T16:42:51.735Z,12.77
2023-04-19T16:45:18.823Z,12.18
2023-04-19T16:47:46.461Z,10.13
2023-04-19T16:50:14.302Z,10.38
2023-04-19T16:52:50.295Z,9.43
2023-04-19T16:55:17.259Z,9.95
2023-04-19T16:57:44.437Z,8.98
2023-04-19T17:00:12.163Z,8.95
2023-04-19T17:02:39.579Z,10.05
2023-04-19T17:05:07.447Z,11.35
2023-04-19T17:07:36.854Z,9.60
2023-04-19T17:10:04.165Z,8.68
2023-04-19T17:12:32.562Z,8.55
2023-04-19T17:15:03.088Z,9.38
2023-04-19T17:17:30.374Z,12.73
2023-04-19T17:19:58.127Z,11.98
2023-04-19T17:22:25.198Z,12.13
2023-04-19T17:24:54.344Z,11.90
2023-04-19T17:27:21.409Z,11.80
2023-04-19T17:29:48.483Z,11.57
2023-04-19T17:32:15.639Z,11.40
2023-04-19T17:34:42.668Z,11.00
2023-04-19T17:37:09.780Z,11.43
2023-04-19T17:39:37.302Z,11.38
2023-04-19T17:42:05.074Z,10.95
2023-04-19T17:44:32.228Z,12.68
2023-04-19T17:46:59.392Z,13.30
2023-04-19T17:49:27.219Z,12.57
2023-04-19T17:51:56.408Z,12.48
2023-04-19T17:54:23.548Z,13.10
2023-04-19T17:56:52.790Z,13.38
2023-04-19T17:59:20.112Z,13.45
2023-04-19T18:01:47.167Z,14.27
2023-04-19T18:04:17.961Z,12.32
2023-04-19T18:06:46.600Z,10.85
2023-04-19T18:09:13.898Z,11.18
2023-04-19T18:11:41.384Z,10.98
2023-04-19T18:14:11.402Z,10.30
2023-04-19T18:16:38.746Z,10.45
2023-04-19T18:19:05.963Z,10.75
2023-04-19T18:21:33.684Z,10.65
2023-04-19T18:24:00.784Z,10.65
2023-04-19T18:26:38.298Z,11.63
2023-04-19T18:29:05.532Z,11.60
2023-04-19T18:31:32.812Z,11.35
2023-04-19T18:34:01.096Z,12.50
2023-04-19T18:36:32.250Z,12.27
2023-04-19T18:39:01.901Z,9.07
2023-04-19T18:41:29.034Z,12.82
2023-04-19T18:44:24.811Z,12.70
2023-04-19T18:46:43.516Z,12.55
2023-04-19T18:49:13.606Z,12.40
2023-04-19T18:51:40.725Z,14.50
2023-04-19T18:54:07.800Z,14.07
2023-04-19T18:59:04.912Z,14.95
2023-04-19T19:01:33.467Z,16.98
2023-04-19T19:06:33.045Z,17.52
2023-04-19T19:09:04.229Z,17.67
2023-04-19T19:11:55.303Z,17.00
2023-04-19T19:14:24.465Z,14.90
2023-04-19T19:16:55.627Z,15.93
2023-04-19T19:19:24.155Z,15.57
2023-04-19T19:21:54.299Z,15.18
2023-04-19T19:24:21.408Z,14.45
2023-04-19T19:26:48.663Z,13.85
2023-04-19T19:29:17.258Z,14.18
2023-04-19T19:31:44.583Z,14.05
2023-04-19T19:34:25.426Z,15.55
2023-04-19T19:36:56.030Z,14.45
2023-04-19T19:39:23.094Z,15.57
2023-04-19T19:42:05.241Z,15.05
2023-04-19T19:44:33.381Z,14.63
2023-04-19T19:47:00.612Z,13.50
2023-04-19T19:49:28.023Z,13.60
2023-04-19T19:51:58.493Z,12.18
2023-04-19T19:54:27.896Z,12.60
2023-04-19T19:59:30.263Z,12.47
2023-04-19T20:01:58.989Z,12.07
2023-04-19T20:04:26.353Z,12.43
2023-04-19T20:09:23.713Z,13.43
2023-04-19T20:11:50.759Z,13.50
2023-04-19T20:14:17.930Z,12.35
2023-04-19T20:16:45.134Z,11.50
2023-04-19T20:19:12.998Z,11.80
2023-04-19T20:21:42.639Z,11.70
2023-04-19T20:24:09.850Z,11.25
2023-04-19T20:26:36.915Z,11.95
2023-04-19T20:29:04.085Z,11.43
2023-04-19T20:31:31.357Z,12.02
2023-04-19T20:33:59.134Z,12.48
2023-04-19T20:36:27.817Z,12.05
2023-04-19T20:38:57.197Z,12.50
2023-04-19T20:41:24.528Z,12.02
2023-04-19T20:43:51.917Z,12.60
2023-04-19T20:46:21.500Z,11.88
2023-04-19T20:48:48.714Z,13.45
2023-04-19T20:51:16.507Z,12.63
2023-04-19T20:53:43.680Z,12.90
2023-04-19T20:56:10.829Z,12.73
2023-04-19T20:58:39.420Z,12.98
2023-04-19T21:01:06.677Z,12.00
2023-04-19T21:03:34.000Z,12.40
2023-04-19T21:06:01.282Z,12.32
2023-04-19T21:08:28.719Z,12.80
2023-04-19T21:10:55.991Z,12.50
2023-04-19T21:13:23.186Z,12.27
2023-04-19T21:15:50.363Z,12.20
2023-04-19T21:18:17.798Z,12.48
2023-04-19T21:20:45.167Z,12.05
2023-04-19T21:23:12.152Z,14.70
2023-04-19T21:25:40.215Z,13.98
2023-04-19T21:28:09.924Z,13.45
2023-04-19T21:30:41.025Z,15.82
2023-04-19T21:33:08.251Z,16.60
2023-04-19T21:35:35.668Z,16.10
2023-04-19T21:38:05.088Z,17.45
2023-04-19T21:40:32.080Z,18.88
2023-04-19T21:42:59.138Z,17.25
2023-04-19T21:45:26.269Z,16.95
2023-04-19T21:47:53.315Z,17.67
2023-04-19T21:50:20.814Z,18.00
2023-04-19T21:52:47.985Z,17.00
2023-04-19T21:55:15.016Z,12.00
2023-04-19T21:57:42.156Z,10.52
2023-04-19T22:00:09.935Z,11.82
2023-04-19T22:02:37.154Z,10.75
2023-04-19T22:05:07.382Z,10.75
2023-04-19T22:07:37.431Z,10.75
2023-04-19T22:10:06.506Z,9.43
2023-04-19T22:12:34.227Z,10.43
2023-04-19T22:15:02.494Z,10.20
2023-04-19T22:17:30.072Z,10.43
2023-04-19T22:19:59.176Z,11.75
2023-04-19T22:22:26.234Z,11.82
2023-04-19T22:24:57.866Z,11.60
2023-04-19T22:27:25.908Z,12.68
2023-04-19T22:29:53.230Z,12.20
2023-04-19T22:32:20.347Z,12.55
2023-04-19T22:34:47.336Z,12.30
2023-04-19T22:37:14.369Z,12.15
2023-04-19T22:39:41.417Z,12.73
2023-04-19T22:42:08.574Z,12.95
2023-04-19T22:44:35.762Z,13.48
2023-04-19T22:47:03.527Z,13.75
2023-04-19T22:49:30.539Z,12.57
2023-04-19T22:51:58.611Z,11.05
2023-04-19T22:54:28.318Z,11.48
2023-04-19T22:56:55.525Z,12.00
2023-04-19T22:59:22.776Z,11.88
2023-04-19T23:01:50.236Z,12.23
2023-04-19T23:04:18.956Z,12.18
2023-04-19T23:06:48.975Z,12.25
2023-04-19T23:09:16.646Z,12.07
2023-04-19T23:11:46.417Z,10.75
2023-04-19T23:14:14.141Z,10.70
2023-04-19T23:16:41.389Z,10.20
2023-04-19T23:19:08.733Z,10.32
2023-04-19T23:21:36.372Z,10.68
2023-04-19T23:24:03.503Z,10.98
2023-04-19T23:26:30.573Z,10.55
2023-04-19T23:28:57.797Z,10.05
2023-04-19T23:31:24.875Z,10.10
2023-04-19T23:33:51.960Z,9.90
2023-04-19T23:36:19.076Z,9.80
2023-04-19T23:38:48.552Z,10.40
2023-04-19T23:41:16.129Z,10.52
2023-04-19T23:43:48.080Z,9.43
2023-04-19T23:46:15.190Z,9.95
2023-04-19T23:48:42.321Z,9.77
2023-04-19T23:51:09.523Z,9.60
2023-04-19T23:53:36.577Z,9.93
2023-04-19T23:56:03.875Z,9.35
2023-04-19T23:58:30.997Z,9.50
